createdAt,value
2023-03-27T00:00:17.156Z,99.90
2023-03-27T00:02:49.506Z,99.90
2023-03-27T00:05:21.244Z,99.90
2023-03-27T00:07:53.185Z,99.90
2023-03-27T00:10:23.452Z,99.90
2023-03-27T00:12:53.642Z,99.90
2023-03-27T00:15:26.537Z,99.90
2023-03-27T00:17:56.707Z,99.90
2023-03-27T00:20:27.864Z,99.90
2023-03-27T00:22:58.035Z,99.90
2023-03-27T00:25:30.778Z,99.90
2023-03-27T00:28:01.813Z,99.90
2023-03-27T00:30:34.285Z,99.90
2023-03-27T00:33:04.561Z,99.90
2023-03-27T00:35:34.838Z,99.90
2023-03-27T00:38:05.022Z,99.90
2023-03-27T00:40:35.825Z,99.90
2023-03-27T00:43:23.062Z,99.90
2023-03-27T00:45:59.091Z,99.90
2023-03-27T00:48:31.173Z,99.90
2023-03-27T00:51:02.238Z,99.90
2023-03-27T00:53:32.716Z,99.90
2023-03-27T00:56:06.389Z,99.90
2023-03-27T00:58:42.093Z,99.90
2023-03-27T01:01:17.683Z,99.90
2023-03-27T01:03:49.823Z,99.90
2023-03-27T01:06:21.149Z,99.90
2023-03-27T01:08:51.745Z,99.90
2023-03-27T01:11:36.093Z,99.90
2023-03-27T01:14:18.144Z,99.90
2023-03-27T01:16:58.145Z,99.90
2023-03-27T01:20:07.834Z,99.90
2023-03-27T01:23:58.620Z,99.90
2023-03-27T01:26:37.242Z,99.90
2023-03-27T01:29:13.974Z,99.90
2023-03-27T01:32:02.104Z,99.90
2023-03-27T01:35:15.625Z,99.90
2023-03-27T01:38:12.893Z,99.90
2023-03-27T01:40:50.083Z,99.90
2023-03-27T01:43:26.657Z,99.90
2023-03-27T01:46:00.045Z,99.90
2023-03-27T01:48:39.214Z,99.90
2023-03-27T01:51:15.658Z,99.90
2023-03-27T01:53:52.746Z,99.90
2023-03-27T01:56:28.391Z,99.90
2023-03-27T01:59:06.066Z,99.90
2023-03-27T02:01:41.278Z,99.90
2023-03-27T02:04:15.882Z,99.90
2023-03-27T02:06:51.428Z,99.90
2023-03-27T02:09:24.819Z,99.90
2023-03-27T02:12:01.128Z,99.90
2023-03-27T02:14:35.382Z,99.90
2023-03-27T02:17:10.948Z,99.90
2023-03-27T02:19:49.913Z,99.90
2023-03-27T02:22:20.141Z,99.90
2023-03-27T02:25:31.117Z,99.90
2023-03-27T02:28:37.278Z,99.90
2023-03-27T02:31:32.764Z,99.90
2023-03-27T02:34:32.592Z,99.90
2023-03-27T02:37:13.208Z,99.90
2023-03-27T02:39:52.976Z,99.90
2023-03-27T02:42:26.729Z,99.90
2023-03-27T02:45:05.993Z,99.90
2023-03-27T02:47:39.824Z,99.90
2023-03-27T02:50:16.328Z,99.90
2023-03-27T02:52:51.852Z,99.90
2023-03-27T02:55:25.226Z,99.90
2023-03-27T02:58:00.216Z,99.90
2023-03-27T03:00:34.663Z,99.90
2023-03-27T03:03:11.873Z,99.90
2023-03-27T03:05:42.632Z,99.90
2023-03-27T03:08:13.413Z,99.90
2023-03-27T03:10:48.325Z,99.90
2023-03-27T03:13:19.389Z,99.90
2023-03-27T03:15:51.272Z,99.90
2023-03-27T03:18:21.588Z,99.90
2023-03-27T03:20:54.726Z,99.90
2023-03-27T03:23:27.149Z,99.90
2023-03-27T03:25:57.698Z,99.90
2023-03-27T03:28:28.242Z,99.90
2023-03-27T03:31:00.944Z,99.90
2023-03-27T03:33:32.169Z,99.90
2023-03-27T03:36:02.678Z,99.90
2023-03-27T03:38:37.829Z,99.90
2023-03-27T03:41:09.215Z,99.90
2023-03-27T03:43:39.437Z,99.90
2023-03-27T03:46:11.243Z,99.90
2023-03-27T03:48:42.170Z,99.90
2023-03-27T03:51:12.372Z,99.90
2023-03-27T03:53:42.690Z,99.90
2023-03-27T03:56:13.185Z,99.90
2023-03-27T03:58:43.595Z,99.90
2023-03-27T04:01:15.611Z,99.90
2023-03-27T04:03:45.925Z,99.90
2023-03-27T04:06:20.670Z,99.90
2023-03-27T04:08:51.430Z,99.90
2023-03-27T04:11:21.736Z,99.90
2023-03-27T04:13:52.372Z,99.90
2023-03-27T04:16:24.753Z,99.90
2023-03-27T04:18:56.941Z,99.90
2023-03-27T04:21:27.551Z,99.90
2023-03-27T04:24:03.186Z,99.90
2023-03-27T04:26:33.573Z,99.90
2023-03-27T04:29:04.719Z,99.90
2023-03-27T04:31:36.600Z,99.90
2023-03-27T04:34:09.027Z,99.90
2023-03-27T04:36:40.253Z,99.90
2023-03-27T04:39:11.195Z,99.90
2023-03-27T04:41:41.351Z,99.90
2023-03-27T04:44:12.028Z,99.90
2023-03-27T04:46:43.868Z,99.90
2023-03-27T04:49:14.496Z,99.90
2023-03-27T04:51:44.760Z,99.90
2023-03-27T04:54:14.962Z,99.90
2023-03-27T04:56:46.267Z,99.90
2023-03-27T04:59:16.902Z,99.90
2023-03-27T05:01:48.639Z,99.90
2023-03-27T05:04:18.919Z,99.90
2023-03-27T05:06:49.057Z,99.90
2023-03-27T05:09:19.283Z,99.90
2023-03-27T05:11:50.576Z,99.90
2023-03-27T05:14:21.330Z,99.90
2023-03-27T05:16:54.260Z,99.90
2023-03-27T05:19:26.553Z,99.90
2023-03-27T05:21:56.882Z,99.90
2023-03-27T05:24:27.766Z,99.90
2023-03-27T05:26:57.977Z,99.90
2023-03-27T05:29:28.546Z,99.90
2023-03-27T05:32:01.433Z,99.90
2023-03-27T05:34:31.812Z,99.90
2023-03-27T05:37:06.735Z,99.90
2023-03-27T05:39:37.460Z,99.90
2023-03-27T05:42:07.657Z,99.90
2023-03-27T05:44:37.819Z,99.90
2023-03-27T05:47:10.815Z,99.90
2023-03-27T05:49:41.688Z,99.90
2023-03-27T05:52:12.032Z,99.90
2023-03-27T05:54:42.623Z,99.90
2023-03-27T05:57:13.316Z,99.90
2023-03-27T05:59:43.541Z,99.90
2023-03-27T06:02:21.138Z,99.90
2023-03-27T06:04:53.127Z,99.90
2023-03-27T06:07:23.317Z,99.90
2023-03-27T06:09:53.549Z,99.90
2023-03-27T06:12:24.850Z,99.90
2023-03-27T06:14:55.191Z,99.90
2023-03-27T06:17:27.291Z,99.90
2023-03-27T06:19:57.797Z,99.90
2023-03-27T06:22:28.019Z,99.90
2023-03-27T06:24:58.219Z,99.90
2023-03-27T06:27:29.135Z,99.90
2023-03-27T06:29:59.567Z,99.90
2023-03-27T06:32:31.523Z,99.90
2023-03-27T06:35:03.410Z,99.90
2023-03-27T06:37:37.480Z,99.90
2023-03-27T06:40:10.952Z,99.90
2023-03-27T06:42:43.185Z,99.90
2023-03-27T06:45:14.785Z,99.90
2023-03-27T06:47:54.686Z,99.90
2023-03-27T06:50:27.824Z,99.90
2023-03-27T06:52:59.558Z,99.90
2023-03-27T06:55:32.143Z,99.90
2023-03-27T06:58:03.756Z,99.90
2023-03-27T07:00:36.255Z,99.90
2023-03-27T07:03:10.798Z,99.90
2023-03-27T07:05:42.390Z,99.90
2023-03-27T07:10:56.346Z,99.90
2023-03-27T07:13:31.009Z,99.90
2023-03-27T07:16:01.239Z,99.90
2023-03-27T07:18:33.093Z,99.90
2023-03-27T07:21:03.370Z,99.90
2023-03-27T07:23:33.663Z,99.90
2023-03-27T07:26:04.537Z,99.90
2023-03-27T07:28:35.028Z,99.90
2023-03-27T07:31:29.334Z,99.90
2023-03-27T07:34:03.692Z,99.90
2023-03-27T07:36:34.459Z,99.90
2023-03-27T07:39:05.188Z,99.90
2023-03-27T07:41:35.444Z,99.90
2023-03-27T07:44:05.762Z,99.90
2023-03-27T07:46:36.753Z,99.90
2023-03-27T07:49:09.357Z,99.90
2023-03-27T07:51:40.599Z,99.90
2023-03-27T07:54:14.148Z,99.90
2023-03-27T07:56:44.359Z,99.90
2023-03-27T07:59:14.732Z,99.90
2023-03-27T08:01:46.210Z,99.90
2023-03-27T08:04:18.059Z,99.90
2023-03-27T08:06:49.557Z,99.90
2023-03-27T08:09:20.360Z,99.90
2023-03-27T08:11:51.228Z,99.90
2023-03-27T08:14:21.527Z,99.90
2023-03-27T08:16:52.270Z,99.90
2023-03-27T08:19:24.372Z,99.90
2023-03-27T08:21:54.663Z,99.90
2023-03-27T08:24:24.848Z,99.90
2023-03-27T08:26:55.726Z,99.90
2023-03-27T08:29:25.951Z,99.90
2023-03-27T08:31:56.643Z,99.90
2023-03-27T08:34:28.899Z,99.90
2023-03-27T08:36:59.217Z,99.90
2023-03-27T08:39:31.491Z,99.90
2023-03-27T08:42:03.976Z,99.90
2023-03-27T08:44:36.097Z,99.90
2023-03-27T08:47:08.993Z,99.90
2023-03-27T08:49:44.975Z,99.90
2023-03-27T08:52:18.685Z,99.90
2023-03-27T08:54:54.168Z,99.90
2023-03-27T08:57:28.853Z,99.90
2023-03-27T09:00:01.488Z,99.90
2023-03-27T09:02:42.974Z,99.90
2023-03-27T09:05:21.397Z,99.90
2023-03-27T09:07:58.525Z,99.90
2023-03-27T09:10:38.028Z,99.90
2023-03-27T09:13:15.989Z,99.90
2023-03-27T09:15:55.675Z,99.90
2023-03-27T09:18:30.429Z,99.90
2023-03-27T09:21:08.525Z,99.90
2023-03-27T09:23:43.401Z,99.90
2023-03-27T09:26:17.197Z,99.90
2023-03-27T09:28:52.399Z,99.90
2023-03-27T09:31:28.643Z,99.90
2023-03-27T09:34:01.412Z,99.90
2023-03-27T09:36:33.611Z,99.90
2023-03-27T09:39:08.581Z,99.90
2023-03-27T09:41:44.472Z,99.90
2023-03-27T09:44:18.557Z,99.90
2023-03-27T09:46:53.863Z,99.90
2023-03-27T09:49:24.824Z,99.90
2023-03-27T09:51:58.911Z,99.90
2023-03-27T09:54:32.498Z,99.90
2023-03-27T09:57:06.815Z,99.90
2023-03-27T09:59:38.909Z,99.90
2023-03-27T10:02:19.612Z,99.90
2023-03-27T10:05:02.323Z,99.90
2023-03-27T10:07:34.153Z,99.90
2023-03-27T10:10:12.640Z,99.90
2023-03-27T10:12:44.062Z,99.90
2023-03-27T10:15:37.041Z,99.90
2023-03-27T10:18:10.291Z,99.90
2023-03-27T10:20:42.640Z,99.90
2023-03-27T10:23:27.597Z,99.90
2023-03-27T10:26:03.767Z,99.90
2023-03-27T10:28:39.646Z,99.90
2023-03-27T10:31:26.455Z,99.90
2023-03-27T10:33:57.308Z,99.90
2023-03-27T10:36:28.456Z,99.90
2023-03-27T10:39:04.515Z,99.90
2023-03-27T10:41:38.312Z,99.90
2023-03-27T10:44:16.210Z,99.90
2023-03-27T10:46:47.370Z,99.90
2023-03-27T10:49:30.763Z,99.90
2023-03-27T10:52:13.604Z,99.90
2023-03-27T10:54:51.720Z,99.90
2023-03-27T10:57:25.789Z,99.90
2023-03-27T11:00:02.514Z,99.90
2023-03-27T11:02:39.508Z,99.90
2023-03-27T11:05:14.831Z,99.90
2023-03-27T11:07:50.394Z,99.90
2023-03-27T11:10:24.862Z,99.90
2023-03-27T11:12:58.534Z,99.90
2023-03-27T11:15:32.867Z,99.90
2023-03-27T11:18:08.907Z,99.90
2023-03-27T11:20:46.586Z,99.90
2023-03-27T11:23:21.159Z,99.90
2023-03-27T11:25:55.527Z,99.90
2023-03-27T11:28:33.274Z,99.90
2023-03-27T11:31:14.045Z,99.90
2023-03-27T11:33:51.302Z,99.90
2023-03-27T11:36:50.191Z,99.90
2023-03-27T11:39:26.502Z,99.90
2023-03-27T11:42:01.049Z,99.90
2023-03-27T11:44:31.798Z,99.90
2023-03-27T11:47:16.713Z,99.90
2023-03-27T11:50:03.404Z,99.90
2023-03-27T11:52:42.786Z,99.90
2023-03-27T11:55:25.929Z,99.90
2023-03-27T11:58:10.541Z,99.90
2023-03-27T12:00:50.477Z,99.90
2023-03-27T12:03:53.197Z,99.90
2023-03-27T12:06:31.893Z,99.90
2023-03-27T12:09:36.472Z,99.90
2023-03-27T12:12:24.983Z,99.90
2023-03-27T12:15:14.604Z,99.90
2023-03-27T12:17:55.769Z,99.90
2023-03-27T12:20:48.749Z,99.90
2023-03-27T12:23:47.471Z,99.90
2023-03-27T12:26:44.618Z,99.90
2023-03-27T12:29:32.377Z,99.90
2023-03-27T12:32:20.838Z,99.90
2023-03-27T12:34:56.368Z,99.90
2023-03-27T12:37:30.533Z,99.90
2023-03-27T12:40:02.049Z,99.90
2023-03-27T12:42:52.459Z,99.90
2023-03-27T12:45:24.525Z,99.90
2023-03-27T12:48:21.563Z,99.90
2023-03-27T12:51:00.900Z,99.90
2023-03-27T12:53:57.263Z,99.90
2023-03-27T12:56:36.805Z,99.90
2023-03-27T12:59:21.504Z,99.90
2023-03-27T13:02:32.790Z,99.90
2023-03-27T13:05:28.425Z,99.90
2023-03-27T13:08:15.657Z,99.90
2023-03-27T13:10:59.893Z,99.90
2023-03-27T13:14:08.557Z,99.90
2023-03-27T13:16:59.367Z,99.90
2023-03-27T13:19:49.867Z,99.90
2023-03-27T13:22:40.078Z,99.90
2023-03-27T13:25:40.135Z,99.90
2023-03-27T13:28:38.231Z,99.90
2023-03-27T13:31:12.299Z,99.90
2023-03-27T13:33:48.263Z,99.90
2023-03-27T13:36:21.443Z,99.90
2023-03-27T13:39:25.203Z,99.90
2023-03-27T13:42:08.764Z,99.90
2023-03-27T13:44:55.558Z,99.90
2023-03-27T13:48:06.047Z,99.90
2023-03-27T13:51:03.720Z,99.90
2023-03-27T13:53:43.461Z,99.90
2023-03-27T13:56:27.612Z,99.90
2023-03-27T13:59:30.702Z,99.90
2023-03-27T14:02:21.646Z,99.90
2023-03-27T14:05:25.518Z,99.90
2023-03-27T14:08:25.172Z,99.90
2023-03-27T14:11:24.349Z,99.90
2023-03-27T14:14:17.422Z,99.90
2023-03-27T14:17:18.750Z,99.90
2023-03-27T14:20:15.948Z,99.90
2023-03-27T14:22:58.763Z,99.90
2023-03-27T14:25:34.777Z,99.90
2023-03-27T14:28:09.828Z,99.90
2023-03-27T14:30:47.245Z,99.90
2023-03-27T14:33:21.377Z,99.90
2023-03-27T14:35:58.360Z,99.90
2023-03-27T14:38:31.546Z,99.90
2023-03-27T14:41:03.571Z,99.90
2023-03-27T14:43:36.127Z,99.90
2023-03-27T14:46:08.359Z,99.90
2023-03-27T14:48:46.653Z,99.90
2023-03-27T14:51:21.327Z,99.90
2023-03-27T14:53:53.585Z,99.90
2023-03-27T14:56:28.891Z,99.90
2023-03-27T14:59:05.216Z,99.90
2023-03-27T15:01:36.359Z,99.90
2023-03-27T15:04:11.909Z,99.90
2023-03-27T15:06:42.722Z,99.90
2023-03-27T15:09:17.236Z,99.90
2023-03-27T15:11:51.194Z,99.90
2023-03-27T15:14:30.148Z,99.90
2023-03-27T15:17:03.447Z,99.90
2023-03-27T15:19:46.254Z,99.90
2023-03-27T15:22:23.554Z,99.90
2023-03-27T15:24:59.004Z,99.90
2023-03-27T15:27:32.269Z,99.90
2023-03-27T15:30:10.647Z,99.90
2023-03-27T15:32:50.911Z,99.90
2023-03-27T15:35:34.039Z,99.90
2023-03-27T15:38:04.811Z,99.90
2023-03-27T15:40:43.587Z,99.90
2023-03-27T15:43:25.435Z,99.90
2023-03-27T15:46:16.728Z,99.90
2023-03-27T15:48:51.915Z,99.90
2023-03-27T15:51:32.237Z,99.90
2023-03-27T15:54:22.399Z,99.90
2023-03-27T15:56:53.057Z,99.90
2023-03-27T15:59:52.098Z,99.90
2023-03-27T16:02:28.952Z,99.90
2023-03-27T16:05:01.444Z,99.90
2023-03-27T16:07:35.263Z,99.90
2023-03-27T16:10:16.044Z,99.90
2023-03-27T16:12:54.252Z,99.90
2023-03-27T16:15:32.150Z,99.90
2023-03-27T16:18:06.638Z,99.90
2023-03-27T16:20:41.330Z,99.90
2023-03-27T16:23:11.851Z,99.90
2023-03-27T16:25:42.576Z,99.90
2023-03-27T16:28:15.104Z,99.90
2023-03-27T16:30:46.351Z,99.90
2023-03-27T16:33:20.097Z,99.90
2023-03-27T16:35:51.677Z,98.10
2023-03-27T16:38:22.252Z,99.00
2023-03-27T16:40:52.445Z,99.00
2023-03-27T16:43:22.619Z,98.20
2023-03-27T16:45:52.913Z,97.50
2023-03-27T16:48:25.011Z,97.10
2023-03-27T16:50:55.416Z,94.40
2023-03-27T16:53:25.625Z,93.20
2023-03-27T16:55:57.515Z,91.50
2023-03-27T16:58:28.413Z,91.40
2023-03-27T17:00:58.680Z,91.50
2023-03-27T17:03:30.489Z,90.80
2023-03-27T17:06:03.444Z,90.80
2023-03-27T17:08:33.846Z,90.20
2023-03-27T17:11:06.018Z,89.00
2023-03-27T17:13:36.489Z,88.00
2023-03-27T17:16:07.321Z,87.70
2023-03-27T17:18:39.355Z,86.10
2023-03-27T17:21:09.914Z,85.70
2023-03-27T17:23:41.664Z,85.60
2023-03-27T17:26:16.036Z,86.40
2023-03-27T17:28:49.226Z,85.00
2023-03-27T17:31:19.824Z,86.30
2023-03-27T17:33:51.753Z,86.40
2023-03-27T17:36:36.743Z,87.90
2023-03-27T17:39:11.840Z,85.40
2023-03-27T17:41:42.073Z,85.80
2023-03-27T17:44:14.192Z,85.20
2023-03-27T17:46:44.688Z,83.00
2023-03-27T17:49:17.203Z,84.30
2023-03-27T17:51:47.486Z,85.70
2023-03-27T17:54:18.234Z,88.40
2023-03-27T17:56:48.409Z,88.10
2023-03-27T17:59:18.612Z,88.40
2023-03-27T18:01:59.810Z,89.40
2023-03-27T18:04:33.934Z,90.00
2023-03-27T18:07:04.528Z,88.10
2023-03-27T18:09:34.963Z,88.40
2023-03-27T18:12:05.103Z,89.20
2023-03-27T18:14:35.590Z,88.40
2023-03-27T18:17:06.071Z,88.20
2023-03-27T18:19:37.957Z,89.30
2023-03-27T18:22:08.102Z,90.80
2023-03-27T18:24:38.316Z,90.90
2023-03-27T18:27:08.630Z,90.80
2023-03-27T18:29:38.823Z,90.80
2023-03-27T18:32:09.231Z,91.40
2023-03-27T18:34:41.920Z,90.30
2023-03-27T18:37:12.096Z,90.30
2023-03-27T18:39:42.745Z,90.30
2023-03-27T18:42:13.080Z,89.00
2023-03-27T18:44:43.471Z,88.50
2023-03-27T18:47:13.920Z,89.00
2023-03-27T18:49:46.778Z,90.10
2023-03-27T18:52:16.929Z,89.00
2023-03-27T18:54:47.142Z,88.50
2023-03-27T18:57:20.125Z,88.60
2023-03-27T18:59:51.028Z,88.50
2023-03-27T19:02:21.437Z,88.30
2023-03-27T19:04:53.944Z,89.10
2023-03-27T19:07:24.155Z,88.20
2023-03-27T19:09:54.936Z,88.70
2023-03-27T19:12:25.132Z,89.50
2023-03-27T19:14:55.750Z,89.70
2023-03-27T19:17:26.710Z,90.40
2023-03-27T19:19:58.566Z,90.10
2023-03-27T19:22:28.796Z,90.50
2023-03-27T19:24:59.125Z,90.50
2023-03-27T19:27:38.480Z,90.90
2023-03-27T19:30:11.864Z,91.30
2023-03-27T19:32:42.782Z,91.10
2023-03-27T19:35:15.357Z,90.80
2023-03-27T19:37:45.648Z,91.40
2023-03-27T19:40:16.670Z,90.70
2023-03-27T19:42:46.866Z,91.00
2023-03-27T19:45:17.123Z,90.60
2023-03-27T19:47:47.941Z,90.80
2023-03-27T19:50:19.973Z,90.90
2023-03-27T19:53:01.509Z,90.60
2023-03-27T19:55:38.250Z,91.90
2023-03-27T19:58:08.518Z,91.80
2023-03-27T20:00:40.424Z,91.90
2023-03-27T20:03:13.531Z,92.10
2023-03-27T20:05:53.855Z,92.40
2023-03-27T20:08:25.056Z,92.60
2023-03-27T20:10:56.119Z,92.60
2023-03-27T20:13:26.300Z,91.80
2023-03-27T20:15:57.161Z,91.00
2023-03-27T20:18:33.332Z,90.20
2023-03-27T20:21:05.814Z,90.20
2023-03-27T20:23:38.305Z,89.90
2023-03-27T20:26:09.186Z,88.20
2023-03-27T20:28:39.339Z,86.60
2023-03-27T20:31:09.784Z,84.90
2023-03-27T20:33:40.326Z,85.80
2023-03-27T20:36:12.708Z,88.20
2023-03-27T20:38:43.140Z,90.30
2023-03-27T20:41:16.450Z,90.40
2023-03-27T20:43:47.920Z,91.00
2023-03-27T20:46:18.681Z,92.10
2023-03-27T20:48:54.058Z,92.60
2023-03-27T20:51:27.179Z,92.10
2023-03-27T20:53:59.036Z,91.90
2023-03-27T20:56:29.588Z,91.80
2023-03-27T20:58:59.788Z,91.00
2023-03-27T21:01:30.122Z,91.60
2023-03-27T21:04:02.765Z,91.30
2023-03-27T21:06:35.318Z,91.50
2023-03-27T21:09:05.743Z,91.30
2023-03-27T21:11:35.985Z,91.40
2023-03-27T21:14:06.225Z,91.60
2023-03-27T21:16:38.258Z,91.80
2023-03-27T21:19:09.061Z,92.20
2023-03-27T21:21:41.434Z,92.00
2023-03-27T21:24:11.777Z,91.60
2023-03-27T21:26:42.444Z,92.00
2023-03-27T21:29:12.639Z,91.20
2023-03-27T21:31:43.529Z,91.30
2023-03-27T21:34:14.180Z,91.40
2023-03-27T21:36:46.769Z,91.40
2023-03-27T21:39:16.964Z,92.20
2023-03-27T21:41:47.204Z,92.10
2023-03-27T21:44:17.456Z,92.10
2023-03-27T21:46:47.671Z,92.70
2023-03-27T21:49:18.285Z,92.40
2023-03-27T21:51:50.448Z,92.80
2023-03-27T21:54:20.801Z,92.10
2023-03-27T21:56:51.244Z,92.00
2023-03-27T21:59:21.930Z,91.40
2023-03-27T22:01:52.373Z,91.30
2023-03-27T22:04:22.761Z,91.00
2023-03-27T22:06:54.717Z,91.40
2023-03-27T22:09:24.900Z,90.90
2023-03-27T22:11:55.109Z,90.80
2023-03-27T22:14:26.086Z,91.90
2023-03-27T22:16:56.319Z,92.10
2023-03-27T22:19:26.670Z,91.60
2023-03-27T22:21:59.375Z,92.30
2023-03-27T22:24:30.121Z,92.50
2023-03-27T22:27:00.642Z,93.10
2023-03-27T22:29:31.237Z,93.10
2023-03-27T22:32:04.835Z,93.40
2023-03-27T22:34:35.036Z,93.70
2023-03-27T22:37:07.239Z,93.60
2023-03-27T22:39:37.634Z,93.40
2023-03-27T22:42:08.347Z,93.60
2023-03-27T22:44:38.765Z,93.80
2023-03-27T22:47:09.024Z,94.20
2023-03-27T22:49:39.354Z,94.40
2023-03-27T22:52:11.471Z,94.80
2023-03-27T22:54:41.987Z,95.00
2023-03-27T22:57:12.506Z,95.40
2023-03-27T22:59:42.704Z,95.80
2023-03-27T23:02:13.389Z,96.50
2023-03-27T23:04:43.616Z,97.20
2023-03-27T23:07:16.093Z,98.00
2023-03-27T23:09:47.432Z,98.60
2023-03-27T23:12:17.657Z,99.10
2023-03-27T23:14:48.083Z,99.70
2023-03-27T23:17:18.406Z,99.90
2023-03-27T23:19:48.754Z,99.90
2023-03-27T23:22:20.852Z,99.90
2023-03-27T23:24:51.104Z,99.90
2023-03-27T23:27:21.359Z,99.90
2023-03-27T23:29:51.576Z,99.90
2023-03-27T23:32:21.954Z,99.90
2023-03-27T23:34:52.135Z,99.90
2023-03-27T23:37:24.254Z,99.90
2023-03-27T23:39:54.664Z,99.90
2023-03-27T23:42:25.008Z,99.90
2023-03-27T23:44:55.164Z,99.90
2023-03-27T23:47:25.857Z,99.90
2023-03-27T23:49:56.152Z,99.90
2023-03-27T23:52:27.968Z,99.90
2023-03-27T23:54:58.261Z,99.90
2023-03-27T23:57:28.590Z,99.90
2023-03-27T23:59:59.216Z,99.90
